Terminal Aerodrome Forecast
Issued by NWS

Home | Current Version | Previous Version | Text Only | Print | Product List | Glossary On
Versions: 1 2 3 4 5 6 7 8 9 10 11 12 13
000
FTUS42 TJSJ 162300
TAFIST
TAF
TIST 162323Z 1700/1724 07005KT P6SM SCT030 SCT050
     FM170530 07004KT P6SM SCT025 SCT035
     FM171400 12014KT P6SM FEW025 SCT050
     FM172300 09009KT P6SM FEW025 SCT070=

USA.gov is the U.S. government's official web portal to all federal, state and local government web resources and services.